createdAt,value
2019-03-31T00:01:57.697Z,2.00
2019-03-31T00:04:30.918Z,1.67
2019-03-31T00:07:03.833Z,1.70
2019-03-31T00:09:37.184Z,2.80
2019-03-31T00:12:09.913Z,1.40
2019-03-31T00:14:43.270Z,1.83
2019-03-31T00:17:16.209Z,2.30
2019-03-31T00:19:49.562Z,1.57
2019-03-31T00:22:22.390Z,1.87
2019-03-31T00:24:55.706Z,2.10
2019-03-31T00:27:28.564Z,1.57
2019-03-31T00:30:02.014Z,1.97
2019-03-31T00:32:35.031Z,2.00
2019-03-31T00:35:08.486Z,1.90
2019-03-31T00:37:41.325Z,1.70
2019-03-31T00:40:14.625Z,1.63
2019-03-31T00:42:47.489Z,1.60
2019-03-31T00:45:20.938Z,1.27
2019-03-31T00:47:53.896Z,2.20
2019-03-31T00:50:28.101Z,1.93
2019-03-31T00:53:01.095Z,2.50
2019-03-31T00:55:34.110Z,2.23
2019-03-31T00:58:07.066Z,1.70
2019-03-31T01:00:51.037Z,1.93
2019-03-31T01:03:24.097Z,1.80
2019-03-31T01:05:57.558Z,2.10
2019-03-31T01:08:33.605Z,2.00
2019-03-31T01:11:08.908Z,1.97
2019-03-31T01:13:42.345Z,1.83
2019-03-31T01:16:15.651Z,1.77
2019-03-31T01:18:48.754Z,2.30
2019-03-31T01:21:21.562Z,2.10
2019-03-31T01:23:54.951Z,1.80
2019-03-31T01:26:28.003Z,2.20
2019-03-31T01:29:01.187Z,2.10
2019-03-31T01:31:34.310Z,2.20
2019-03-31T02:33:23.240Z,1.55
2019-03-31T02:35:56.701Z,1.40
2019-03-31T02:38:31.009Z,2.10
2019-03-31T02:41:04.018Z,1.42
2019-03-31T02:43:37.011Z,1.60
2019-03-31T02:46:09.889Z,2.30
2019-03-31T02:48:43.128Z,1.60
2019-03-31T02:51:16.319Z,1.93
2019-03-31T02:53:49.358Z,2.00
2019-03-31T02:56:22.408Z,1.50
2019-03-31T02:58:57.265Z,1.70
2019-03-31T03:01:30.238Z,2.20
2019-03-31T03:04:07.977Z,1.90
2019-03-31T03:06:41.235Z,1.63
2019-03-31T03:09:15.093Z,2.30
2019-03-31T03:11:49.565Z,2.20
2019-03-31T03:14:23.943Z,1.90
2019-03-31T03:16:57.234Z,1.77
2019-03-31T03:19:30.889Z,1.80
2019-03-31T03:22:04.885Z,1.55
2019-03-31T03:24:38.504Z,1.62
2019-03-31T03:27:13.167Z,2.00
2019-03-31T03:29:46.737Z,2.50
2019-03-31T03:32:23.139Z,1.63
2019-03-31T03:34:57.363Z,1.50
2019-03-31T03:37:31.123Z,1.70
2019-03-31T03:40:04.286Z,1.60
2019-03-31T03:42:38.387Z,1.90
2019-03-31T03:45:12.697Z,2.03
2019-03-31T03:47:45.769Z,2.10
2019-03-31T03:50:18.610Z,2.20
2019-03-31T03:52:51.767Z,1.90
2019-03-31T03:55:24.654Z,2.23
2019-03-31T03:57:57.847Z,2.07
2019-03-31T04:00:30.851Z,2.23
2019-03-31T04:03:03.959Z,2.20
2019-03-31T04:05:36.919Z,2.17
2019-03-31T04:08:10.502Z,3.23
2019-03-31T04:10:48.297Z,3.03
2019-03-31T04:13:21.360Z,2.43
2019-03-31T04:15:54.897Z,1.73
2019-03-31T04:18:28.016Z,2.20
2019-03-31T04:21:01.133Z,2.33
2019-03-31T04:23:34.089Z,2.27
2019-03-31T04:26:07.255Z,2.03
2019-03-31T04:28:40.071Z,2.80
2019-03-31T04:31:13.221Z,2.53
2019-03-31T04:33:51.763Z,3.40
2019-03-31T04:36:20.950Z,2.73
2019-03-31T04:38:53.839Z,3.03
2019-03-31T04:41:27.109Z,3.60
2019-03-31T04:44:00.028Z,2.53
2019-03-31T04:46:33.303Z,3.80
2019-03-31T04:49:06.078Z,2.40
2019-03-31T04:51:40.211Z,2.80
2019-03-31T04:54:13.199Z,3.03
2019-03-31T04:56:46.307Z,2.27
2019-03-31T04:59:19.435Z,3.53
2019-03-31T05:01:52.346Z,2.30
2019-03-31T05:04:25.811Z,2.53
2019-03-31T05:06:59.052Z,3.57
2019-03-31T05:09:32.104Z,2.93
2019-03-31T05:12:04.919Z,3.80
2019-03-31T05:14:37.895Z,4.13
2019-03-31T05:17:11.304Z,2.93
2019-03-31T05:19:44.404Z,5.20
2019-03-31T05:22:19.808Z,3.60
2019-03-31T05:24:52.700Z,2.40
2019-03-31T05:27:25.874Z,2.60
2019-03-31T05:29:58.681Z,3.00
2019-03-31T05:32:31.765Z,3.00
2019-03-31T05:35:04.800Z,3.20
2019-03-31T05:37:50.351Z,2.50
2019-03-31T05:40:13.512Z,2.50
2019-03-31T05:42:46.500Z,3.40
2019-03-31T05:45:19.678Z,2.70
2019-03-31T05:47:52.652Z,2.50
2019-03-31T05:50:25.835Z,3.17
2019-03-31T05:52:58.737Z,2.83
2019-03-31T05:55:31.814Z,3.03
2019-03-31T05:58:04.620Z,3.10
2019-03-31T06:00:39.449Z,3.03
2019-03-31T06:03:12.571Z,2.87
2019-03-31T06:05:45.694Z,3.10
2019-03-31T06:08:18.588Z,2.80
2019-03-31T06:10:51.529Z,2.70
2019-03-31T06:13:24.373Z,3.53
2019-03-31T06:15:57.499Z,3.20
2019-03-31T06:18:30.472Z,4.70
2019-03-31T06:21:03.781Z,5.17
2019-03-31T06:23:36.748Z,3.23
2019-03-31T06:26:09.840Z,3.67
2019-03-31T06:28:42.710Z,3.80
2019-03-31T06:31:15.984Z,3.03
2019-03-31T06:33:49.100Z,2.70
2019-03-31T06:36:22.175Z,4.60
2019-03-31T06:38:55.809Z,2.57
2019-03-31T06:41:28.660Z,3.33
2019-03-31T06:44:01.856Z,3.03
2019-03-31T06:46:34.815Z,2.83
2019-03-31T06:49:07.813Z,3.93
2019-03-31T06:51:40.811Z,3.67
2019-03-31T06:54:15.090Z,2.80
2019-03-31T06:56:48.103Z,3.80
2019-03-31T06:59:21.733Z,4.60
2019-03-31T07:01:54.762Z,3.30
2019-03-31T07:04:27.843Z,4.90
2019-03-31T07:07:00.835Z,3.70
2019-03-31T07:09:34.074Z,3.87
2019-03-31T07:12:06.979Z,3.00
2019-03-31T07:14:40.229Z,2.90
2019-03-31T07:17:13.122Z,3.37
2019-03-31T07:19:46.123Z,2.47
2019-03-31T07:22:19.298Z,3.30
2019-03-31T07:24:52.109Z,2.97
2019-03-31T07:27:25.402Z,3.27
2019-03-31T07:29:58.371Z,3.67
2019-03-31T07:32:31.461Z,2.90
2019-03-31T07:35:17.550Z,3.23
2019-03-31T07:37:47.194Z,3.27
2019-03-31T07:40:23.357Z,3.70
2019-03-31T07:42:57.614Z,3.30
2019-03-31T07:45:31.654Z,3.70
2019-03-31T07:48:07.894Z,3.47
2019-03-31T07:50:39.884Z,2.83
2019-03-31T07:53:12.866Z,3.33
2019-03-31T07:55:45.979Z,2.93
2019-03-31T07:58:18.988Z,2.73
2019-03-31T08:00:52.082Z,6.30
2019-03-31T08:03:25.182Z,3.20
2019-03-31T08:05:58.105Z,2.80
2019-03-31T08:08:31.616Z,3.20
2019-03-31T08:11:04.482Z,3.00
2019-03-31T08:13:37.914Z,3.37
2019-03-31T08:16:11.023Z,3.10
2019-03-31T08:18:44.750Z,2.80
2019-03-31T08:21:17.719Z,3.90
2019-03-31T08:23:50.562Z,3.13
2019-03-31T08:26:23.758Z,3.90
2019-03-31T08:28:58.715Z,2.87
2019-03-31T08:31:31.775Z,3.00
2019-03-31T08:34:05.532Z,2.47
2019-03-31T08:36:38.774Z,3.20
2019-03-31T08:39:12.954Z,2.57
2019-03-31T08:41:46.494Z,2.83
2019-03-31T08:44:19.809Z,3.43
2019-03-31T08:46:52.645Z,4.03
2019-03-31T08:49:26.157Z,2.87
2019-03-31T08:51:59.105Z,2.50
2019-03-31T08:54:32.379Z,4.93
2019-03-31T08:57:05.431Z,2.93
2019-03-31T08:59:38.503Z,2.50
2019-03-31T09:02:28.352Z,2.83
2019-03-31T09:05:01.199Z,2.50
2019-03-31T09:07:34.515Z,2.83
2019-03-31T09:10:11.342Z,3.03
2019-03-31T09:12:46.775Z,3.50
2019-03-31T09:15:18.818Z,2.50
2019-03-31T09:17:54.175Z,3.20
2019-03-31T09:20:26.433Z,4.23
2019-03-31T09:22:59.256Z,2.63
2019-03-31T09:25:32.578Z,2.70
2019-03-31T09:28:05.446Z,3.13
2019-03-31T09:30:38.814Z,2.80
2019-03-31T09:33:11.918Z,3.67
2019-03-31T09:35:44.977Z,4.07
2019-03-31T09:38:18.543Z,3.03
2019-03-31T09:40:51.654Z,2.40
2019-03-31T09:43:24.908Z,2.40
2019-03-31T09:45:57.792Z,3.00
2019-03-31T09:48:31.338Z,3.87
2019-03-31T09:51:04.364Z,2.60
2019-03-31T09:53:37.880Z,2.50
2019-03-31T09:56:10.877Z,2.73
2019-03-31T09:58:44.061Z,3.80
2019-03-31T10:01:17.171Z,2.77
2019-03-31T10:03:50.342Z,2.73
2019-03-31T10:06:30.104Z,2.90
2019-03-31T10:08:58.228Z,3.10
2019-03-31T10:11:31.525Z,4.07
2019-03-31T10:14:04.602Z,3.23
2019-03-31T10:16:37.786Z,2.83
2019-03-31T10:19:10.694Z,2.70
2019-03-31T10:21:43.855Z,2.70
2019-03-31T10:24:17.361Z,3.60
2019-03-31T10:26:50.533Z,3.40
2019-03-31T10:29:23.454Z,2.53
2019-03-31T10:31:56.743Z,3.20
2019-03-31T10:34:29.614Z,2.90
2019-03-31T10:37:02.688Z,3.00
2019-03-31T10:39:35.807Z,3.40
2019-03-31T10:42:09.566Z,3.10
2019-03-31T10:44:42.427Z,4.00
2019-03-31T10:47:15.541Z,3.00
2019-03-31T10:49:48.581Z,3.10
2019-03-31T10:52:21.562Z,2.40
2019-03-31T10:54:54.752Z,4.10
2019-03-31T10:57:27.796Z,3.00
2019-03-31T11:00:01.062Z,3.90
2019-03-31T11:02:34.352Z,3.53
2019-03-31T11:05:07.875Z,3.27
2019-03-31T11:07:41.165Z,2.57
2019-03-31T11:10:14.393Z,2.80
2019-03-31T11:12:50.680Z,3.20
2019-03-31T11:15:21.596Z,3.00
2019-03-31T11:17:54.562Z,2.87
2019-03-31T11:20:27.686Z,3.00
2019-03-31T11:23:20.020Z,3.30
2019-03-31T11:25:53.114Z,3.23
2019-03-31T11:28:26.099Z,2.30
2019-03-31T11:30:59.770Z,3.30
2019-03-31T11:33:32.538Z,2.73
2019-03-31T11:36:06.382Z,2.90
2019-03-31T11:38:40.280Z,3.07
2019-03-31T11:41:14.474Z,3.70
2019-03-31T11:43:47.538Z,3.43
2019-03-31T11:46:20.631Z,3.20
2019-03-31T11:48:53.872Z,2.23
2019-03-31T11:51:26.999Z,4.30
2019-03-31T11:54:00.056Z,3.13
2019-03-31T11:56:33.051Z,4.40
2019-03-31T11:59:06.233Z,3.00
2019-03-31T12:01:39.290Z,3.83
2019-03-31T12:04:12.101Z,3.83
2019-03-31T12:06:45.868Z,5.10
2019-03-31T12:09:18.679Z,2.83
2019-03-31T12:11:51.971Z,3.30
2019-03-31T12:14:24.924Z,3.70
2019-03-31T12:16:58.027Z,3.60
2019-03-31T12:19:30.972Z,3.23
2019-03-31T12:22:04.366Z,2.90
2019-03-31T12:24:37.345Z,4.20
2019-03-31T12:27:10.614Z,3.83
2019-03-31T12:29:43.588Z,3.43
2019-03-31T12:32:16.685Z,2.93
2019-03-31T12:34:49.699Z,2.50
2019-03-31T12:37:23.040Z,3.17
2019-03-31T12:39:55.872Z,5.57
2019-03-31T12:42:29.244Z,4.50
2019-03-31T12:45:02.118Z,2.70
2019-03-31T12:47:35.987Z,2.80
2019-03-31T12:50:09.701Z,2.70
2019-03-31T12:52:47.490Z,3.00
2019-03-31T12:55:17.540Z,3.60
2019-03-31T12:57:51.984Z,2.50
2019-03-31T13:00:24.781Z,3.10
2019-03-31T13:02:57.514Z,4.07
2019-03-31T13:05:30.239Z,3.60
2019-03-31T13:08:04.440Z,2.83
2019-03-31T13:10:37.343Z,3.00
2019-03-31T13:13:10.433Z,3.57
2019-03-31T13:15:43.495Z,3.00
2019-03-31T13:18:16.618Z,3.80
2019-03-31T13:20:49.712Z,3.10
2019-03-31T13:23:23.023Z,3.57
2019-03-31T13:25:55.857Z,4.60
2019-03-31T13:28:28.966Z,3.10
2019-03-31T13:31:02.371Z,2.80
2019-03-31T13:33:36.026Z,2.87
2019-03-31T13:36:08.936Z,3.87
2019-03-31T13:38:41.996Z,3.13
2019-03-31T13:41:15.014Z,3.90
2019-03-31T13:43:48.953Z,2.60
2019-03-31T13:46:22.064Z,3.43
2019-03-31T13:48:54.969Z,4.50
2019-03-31T13:51:28.073Z,4.30
2019-03-31T13:54:00.887Z,3.80
2019-03-31T13:56:34.859Z,3.23
2019-03-31T13:59:09.184Z,3.23
2019-03-31T14:01:42.302Z,4.20
2019-03-31T14:04:15.497Z,3.23
2019-03-31T14:06:48.630Z,3.13
2019-03-31T14:09:21.680Z,3.23
2019-03-31T14:11:54.963Z,3.10
2019-03-31T14:14:27.899Z,2.70
2019-03-31T14:17:01.041Z,3.73
2019-03-31T14:19:33.952Z,2.77
2019-03-31T14:22:06.986Z,3.13
2019-03-31T14:24:40.393Z,3.57
2019-03-31T14:27:13.402Z,3.50
2019-03-31T14:29:46.564Z,4.40
2019-03-31T14:32:19.354Z,2.93
2019-03-31T14:34:52.355Z,3.77
2019-03-31T14:37:25.336Z,3.60
2019-03-31T14:39:58.746Z,3.70
2019-03-31T14:42:31.712Z,2.93
2019-03-31T14:45:05.093Z,3.47
2019-03-31T14:47:38.018Z,3.30
2019-03-31T14:50:13.635Z,3.10
2019-03-31T14:52:46.603Z,3.00
2019-03-31T14:55:19.590Z,3.17
2019-03-31T14:57:52.730Z,5.43
2019-03-31T15:00:25.873Z,4.17
2019-03-31T15:02:58.800Z,3.17
2019-03-31T15:05:31.560Z,3.43
2019-03-31T15:08:05.494Z,3.83
2019-03-31T15:10:38.829Z,4.07
2019-03-31T15:13:12.060Z,2.40
2019-03-31T15:15:45.039Z,4.60
2019-03-31T15:18:17.899Z,3.37
2019-03-31T15:20:51.124Z,2.70
2019-03-31T15:23:28.890Z,4.30
2019-03-31T15:25:58.243Z,3.60
2019-03-31T15:28:31.228Z,4.73
2019-03-31T15:31:05.230Z,3.57
2019-03-31T15:33:38.192Z,3.37
2019-03-31T15:36:11.336Z,4.37
2019-03-31T15:38:44.202Z,4.23
2019-03-31T15:41:21.329Z,3.10
2019-03-31T15:43:51.385Z,3.40
2019-03-31T15:46:24.948Z,3.73
2019-03-31T15:48:57.834Z,4.70
2019-03-31T15:51:31.571Z,3.13
2019-03-31T15:54:04.548Z,3.90
2019-03-31T15:56:38.651Z,2.70
2019-03-31T15:59:11.655Z,3.60
2019-03-31T16:01:44.741Z,3.30
2019-03-31T16:04:17.731Z,3.77
2019-03-31T16:06:50.924Z,3.33
2019-03-31T16:09:24.265Z,4.97
2019-03-31T16:11:57.485Z,3.60
2019-03-31T16:14:30.496Z,3.23
2019-03-31T16:17:03.285Z,4.50
2019-03-31T16:19:37.483Z,4.53
2019-03-31T16:22:10.041Z,3.80
2019-03-31T16:24:44.206Z,4.60
2019-03-31T16:27:17.398Z,3.40
2019-03-31T16:29:50.564Z,3.20
2019-03-31T16:32:23.457Z,3.40
2019-03-31T16:34:56.530Z,3.07
2019-03-31T16:37:29.634Z,5.10
2019-03-31T16:40:02.775Z,3.10
2019-03-31T16:42:36.042Z,3.73
2019-03-31T16:45:10.475Z,4.40
2019-03-31T16:47:43.436Z,5.17
2019-03-31T16:50:16.604Z,4.57
2019-03-31T16:52:52.379Z,3.67
2019-03-31T16:55:23.708Z,2.20
2019-03-31T16:57:56.600Z,3.97
2019-03-31T17:00:29.979Z,2.67
2019-03-31T17:03:02.792Z,4.80
2019-03-31T17:05:35.973Z,3.60
2019-03-31T17:08:08.959Z,3.87
2019-03-31T17:10:42.142Z,3.73
2019-03-31T17:13:15.112Z,3.03
2019-03-31T17:15:48.190Z,3.47
2019-03-31T17:18:21.609Z,4.00
2019-03-31T17:20:54.751Z,4.63
2019-03-31T17:23:27.691Z,3.53
2019-03-31T17:26:00.691Z,3.17
2019-03-31T17:28:33.866Z,3.33
2019-03-31T17:31:06.842Z,3.20
2019-03-31T17:33:39.871Z,4.20
2019-03-31T17:36:13.026Z,3.73
2019-03-31T17:38:46.273Z,4.70
2019-03-31T17:41:19.426Z,4.87
2019-03-31T17:43:52.627Z,4.10
2019-03-31T17:46:25.733Z,4.50
2019-03-31T17:48:59.240Z,4.23
2019-03-31T17:51:32.202Z,3.70
2019-03-31T17:54:06.432Z,3.47
2019-03-31T17:56:39.924Z,3.40
2019-03-31T17:59:13.063Z,3.80
2019-03-31T18:01:46.195Z,4.07
2019-03-31T18:04:19.683Z,3.37
2019-03-31T18:06:52.673Z,3.70
2019-03-31T18:09:25.838Z,5.00
2019-03-31T18:11:58.737Z,3.43
2019-03-31T18:14:32.243Z,4.23
2019-03-31T18:17:05.337Z,3.53
2019-03-31T18:19:38.604Z,3.33
2019-03-31T18:22:16.797Z,3.80
2019-03-31T18:24:45.727Z,3.30
2019-03-31T18:27:18.943Z,3.70
2019-03-31T18:29:52.149Z,3.40
2019-03-31T18:32:25.102Z,4.00
2019-03-31T18:34:58.310Z,5.73
2019-03-31T18:37:31.350Z,3.63
2019-03-31T18:40:04.437Z,4.00
2019-03-31T18:42:37.438Z,3.20
2019-03-31T18:45:11.108Z,3.30
2019-03-31T18:47:44.224Z,3.30
2019-03-31T18:50:17.515Z,3.63
2019-03-31T18:52:50.419Z,3.17
2019-03-31T18:55:41.368Z,3.30
2019-03-31T18:58:21.387Z,3.07
2019-03-31T19:01:05.044Z,4.70
2019-03-31T19:03:55.017Z,2.37
2019-03-31T19:06:29.425Z,3.63
2019-03-31T19:09:12.690Z,3.33
2019-03-31T19:11:59.435Z,3.10
2019-03-31T19:14:33.596Z,3.87
2019-03-31T19:17:13.770Z,4.80
2019-03-31T19:19:47.658Z,3.90
2019-03-31T19:22:23.558Z,4.37
2019-03-31T19:25:00.473Z,4.03
2019-03-31T19:27:43.938Z,3.93
2019-03-31T19:30:33.408Z,3.40
2019-03-31T19:33:24.085Z,4.47
2019-03-31T19:35:58.137Z,3.83
2019-03-31T19:38:38.166Z,4.87
2019-03-31T19:41:21.791Z,4.80
2019-03-31T19:43:55.982Z,3.43
2019-03-31T19:46:33.414Z,6.63
2019-03-31T19:49:14.703Z,3.63
2019-03-31T19:52:06.560Z,4.60
2019-03-31T19:54:41.147Z,3.07
2019-03-31T19:57:24.291Z,4.87
2019-03-31T20:00:13.945Z,5.13
2019-03-31T20:02:48.099Z,3.00
2019-03-31T20:05:38.767Z,3.63
2019-03-31T20:08:12.854Z,4.00
2019-03-31T20:10:47.199Z,3.40
2019-03-31T20:13:27.223Z,5.87
2019-03-31T20:16:07.784Z,4.30
2019-03-31T20:18:51.502Z,4.37
2019-03-31T20:21:32.221Z,3.70
2019-03-31T20:24:22.617Z,3.90
2019-03-31T20:26:56.625Z,5.23
2019-03-31T20:29:36.651Z,4.03
2019-03-31T20:32:11.123Z,5.47
2019-03-31T20:34:45.609Z,4.60
2019-03-31T20:37:28.817Z,4.57
2019-03-31T20:40:15.123Z,4.07
2019-03-31T20:42:55.303Z,5.07
2019-03-31T20:45:28.268Z,4.13
2019-03-31T20:48:01.369Z,5.20
2019-03-31T20:50:35.104Z,5.30
2019-03-31T20:53:10.155Z,5.10
2019-03-31T20:55:43.070Z,4.40
2019-03-31T20:58:16.844Z,4.23
2019-03-31T21:00:49.523Z,5.13
2019-03-31T21:03:22.754Z,5.10
2019-03-31T21:05:55.959Z,4.07
2019-03-31T21:08:28.981Z,4.57
2019-03-31T21:11:01.830Z,4.97
2019-03-31T21:13:35.724Z,4.87
2019-03-31T21:16:08.562Z,5.17
2019-03-31T21:18:41.274Z,2.70
2019-03-31T21:21:14.275Z,4.03
2019-03-31T21:23:47.144Z,6.40
2019-03-31T21:26:20.194Z,4.70
2019-03-31T21:28:53.291Z,4.30
2019-03-31T21:31:26.094Z,4.40
2019-03-31T21:33:59.171Z,4.20
2019-03-31T21:36:32.580Z,4.40
2019-03-31T21:39:06.915Z,5.13
2019-03-31T21:41:39.898Z,4.57
2019-03-31T21:44:13.213Z,5.03
2019-03-31T21:46:46.065Z,4.57
2019-03-31T21:49:19.199Z,7.03
2019-03-31T21:51:52.840Z,4.77
2019-03-31T21:54:25.935Z,3.80
2019-03-31T21:56:58.849Z,6.00
2019-03-31T21:59:33.664Z,4.40
2019-03-31T22:02:06.652Z,4.10
2019-03-31T22:04:40.985Z,5.17
2019-03-31T22:07:13.725Z,3.90
2019-03-31T22:09:46.854Z,4.03
2019-03-31T22:12:19.693Z,5.67
2019-03-31T22:14:53.643Z,5.07
2019-03-31T22:17:26.618Z,5.63
2019-03-31T22:19:59.600Z,5.03
2019-03-31T22:22:32.735Z,6.60
2019-03-31T22:25:05.629Z,5.10
2019-03-31T22:27:38.764Z,6.70
2019-03-31T22:30:11.665Z,6.10
2019-03-31T22:32:44.910Z,5.30
2019-03-31T22:35:17.730Z,6.00
2019-03-31T22:37:50.710Z,3.50
2019-03-31T22:40:23.577Z,5.40
2019-03-31T22:42:56.475Z,5.13
2019-03-31T22:45:29.972Z,6.57
2019-03-31T22:48:02.861Z,4.97
2019-03-31T22:50:36.111Z,4.07
2019-03-31T22:53:09.189Z,5.03
2019-03-31T22:55:42.306Z,5.10
2019-03-31T22:58:15.243Z,4.73
2019-03-31T23:00:48.403Z,4.90
2019-03-31T23:03:21.203Z,6.67
2019-03-31T23:05:57.188Z,5.47
2019-03-31T23:08:30.352Z,5.97
2019-03-31T23:11:03.243Z,4.73
2019-03-31T23:13:37.163Z,5.90
2019-03-31T23:16:10.025Z,4.57
2019-03-31T23:18:43.300Z,3.90
2019-03-31T23:21:19.282Z,4.80
2019-03-31T23:23:52.404Z,5.90
2019-03-31T23:26:25.361Z,5.40
2019-03-31T23:28:58.235Z,4.50
2019-03-31T23:31:31.039Z,6.50
2019-03-31T23:34:04.279Z,5.03
2019-03-31T23:36:37.478Z,4.30
2019-03-31T23:39:10.841Z,5.47
2019-03-31T23:41:43.863Z,6.23
2019-03-31T23:44:16.909Z,7.77
2019-03-31T23:46:49.882Z,5.43
2019-03-31T23:49:22.836Z,5.67
2019-03-31T23:51:55.998Z,5.13
2019-03-31T23:54:29.144Z,7.00
2019-03-31T23:57:03.294Z,5.10
2019-03-31T23:59:36.139Z,5.50
